sensor_id;sensor_type;location;lat;lon;timestamp;temperature;humidity
17370;DHT22;8802;52.402;4.920;2023-04-24T00:01:59;14.60;99.90
17370;DHT22;8802;52.402;4.920;2023-04-24T00:04:26;14.50;99.90
17370;DHT22;8802;52.402;4.920;2023-04-24T00:06:53;14.50;99.90
17370;DHT22;8802;52.402;4.920;2023-04-24T00:09:22;14.50;99.90
17370;DHT22;8802;52.402;4.920;2023-04-24T00:11:49;14.50;99.90
17370;DHT22;8802;52.402;4.920;2023-04-24T00:14:18;14.40;99.90
17370;DHT22;8802;52.402;4.920;2023-04-24T00:16:45;14.40;99.90
17370;DHT22;8802;52.402;4.920;2023-04-24T00:19:11;14.40;99.90
17370;DHT22;8802;52.402;4.920;2023-04-24T00:21:38;14.40;99.90
17370;DHT22;8802;52.402;4.920;2023-04-24T00:24:06;14.40;99.90
17370;DHT22;8802;52.402;4.920;2023-04-24T00:26:34;14.40;99.90
17370;DHT22;8802;52.402;4.920;2023-04-24T00:29:01;14.40;99.90
17370;DHT22;8802;52.402;4.920;2023-04-24T00:31:29;14.40;99.90
17370;DHT22;8802;52.402;4.920;2023-04-24T00:33:56;14.30;99.90
17370;DHT22;8802;52.402;4.920;2023-04-24T00:36:24;14.30;99.90
17370;DHT22;8802;52.402;4.920;2023-04-24T00:38:52;14.30;99.90
17370;DHT22;8802;52.402;4.920;2023-04-24T00:41:19;14.30;99.90
17370;DHT22;8802;52.402;4.920;2023-04-24T00:43:46;14.30;99.90
17370;DHT22;8802;52.402;4.920;2023-04-24T00:46:13;14.30;99.90
17370;DHT22;8802;52.402;4.920;2023-04-24T00:48:42;14.30;99.90
17370;DHT22;8802;52.402;4.920;2023-04-24T00:51:09;14.30;99.90
17370;DHT22;8802;52.402;4.920;2023-04-24T00:53:36;14.30;99.90
17370;DHT22;8802;52.402;4.920;2023-04-24T00:56:04;14.20;99.90
17370;DHT22;8802;52.402;4.920;2023-04-24T00:58:31;14.20;99.90
17370;DHT22;8802;52.402;4.920;2023-04-24T01:00:58;14.20;99.90
17370;DHT22;8802;52.402;4.920;2023-04-24T01:03:28;14.20;99.90
17370;DHT22;8802;52.402;4.920;2023-04-24T01:05:57;14.20;99.90
17370;DHT22;8802;52.402;4.920;2023-04-24T01:08:25;14.20;99.90
17370;DHT22;8802;52.402;4.920;2023-04-24T01:10:53;14.20;99.90
17370;DHT22;8802;52.402;4.920;2023-04-24T01:13:20;14.20;99.90
17370;DHT22;8802;52.402;4.920;2023-04-24T01:15:48;14.20;99.90
17370;DHT22;8802;52.402;4.920;2023-04-24T01:18:15;14.10;99.90
17370;DHT22;8802;52.402;4.920;2023-04-24T01:20:43;14.10;99.90
17370;DHT22;8802;52.402;4.920;2023-04-24T01:23:13;14.10;99.90
17370;DHT22;8802;52.402;4.920;2023-04-24T01:25:40;14.10;99.90
17370;DHT22;8802;52.402;4.920;2023-04-24T01:28:07;14.10;99.90
17370;DHT22;8802;52.402;4.920;2023-04-24T01:30:34;14.10;99.90
17370;DHT22;8802;52.402;4.920;2023-04-24T01:33:01;14.10;99.90
17370;DHT22;8802;52.402;4.920;2023-04-24T01:35:29;14.10;99.90
17370;DHT22;8802;52.402;4.920;2023-04-24T01:37:56;14.00;99.90
17370;DHT22;8802;52.402;4.920;2023-04-24T01:40:24;14.00;99.90
17370;DHT22;8802;52.402;4.920;2023-04-24T01:42:51;14.00;99.90
17370;DHT22;8802;52.402;4.920;2023-04-24T01:45:19;14.00;99.90
17370;DHT22;8802;52.402;4.920;2023-04-24T01:47:45;14.00;99.90
17370;DHT22;8802;52.402;4.920;2023-04-24T01:50:14;14.00;99.90
17370;DHT22;8802;52.402;4.920;2023-04-24T01:52:41;13.90;99.90
17370;DHT22;8802;52.402;4.920;2023-04-24T01:55:09;13.90;99.90
17370;DHT22;8802;52.402;4.920;2023-04-24T01:57:38;13.90;99.90
17370;DHT22;8802;52.402;4.920;2023-04-24T02:00:06;13.80;99.90
17370;DHT22;8802;52.402;4.920;2023-04-24T02:02:34;13.80;99.90
17370;DHT22;8802;52.402;4.920;2023-04-24T02:05:00;13.80;99.90
17370;DHT22;8802;52.402;4.920;2023-04-24T02:07:28;13.70;99.90
17370;DHT22;8802;52.402;4.920;2023-04-24T02:09:55;13.70;99.90
17370;DHT22;8802;52.402;4.920;2023-04-24T02:12:22;13.70;99.90
17370;DHT22;8802;52.402;4.920;2023-04-24T02:14:50;13.60;99.90
17370;DHT22;8802;52.402;4.920;2023-04-24T02:17:17;13.60;99.90
17370;DHT22;8802;52.402;4.920;2023-04-24T02:19:44;13.60;99.90
17370;DHT22;8802;52.402;4.920;2023-04-24T02:22:11;13.60;99.90
17370;DHT22;8802;52.402;4.920;2023-04-24T02:24:39;13.50;99.90
17370;DHT22;8802;52.402;4.920;2023-04-24T02:27:06;13.50;99.90
17370;DHT22;8802;52.402;4.920;2023-04-24T02:29:32;13.50;99.90
17370;DHT22;8802;52.402;4.920;2023-04-24T02:32:01;13.50;99.90
17370;DHT22;8802;52.402;4.920;2023-04-24T02:34:28;13.50;99.90
17370;DHT22;8802;52.402;4.920;2023-04-24T02:36:55;13.40;99.90
17370;DHT22;8802;52.402;4.920;2023-04-24T02:39:21;13.40;99.90
17370;DHT22;8802;52.402;4.920;2023-04-24T02:41:48;13.40;99.90
17370;DHT22;8802;52.402;4.920;2023-04-24T02:44:15;13.40;99.90
17370;DHT22;8802;52.402;4.920;2023-04-24T02:46:42;13.40;99.90
17370;DHT22;8802;52.402;4.920;2023-04-24T02:49:11;13.40;99.90
17370;DHT22;8802;52.402;4.920;2023-04-24T02:51:38;13.40;99.90
17370;DHT22;8802;52.402;4.920;2023-04-24T02:54:07;13.40;99.90
17370;DHT22;8802;52.402;4.920;2023-04-24T02:56:34;13.30;99.90
17370;DHT22;8802;52.402;4.920;2023-04-24T02:59:00;13.30;99.90
17370;DHT22;8802;52.402;4.920;2023-04-24T03:01:27;13.30;99.90
17370;DHT22;8802;52.402;4.920;2023-04-24T03:03:54;13.30;99.90
17370;DHT22;8802;52.402;4.920;2023-04-24T03:06:22;13.30;99.90
17370;DHT22;8802;52.402;4.920;2023-04-24T03:08:49;13.30;99.90
17370;DHT22;8802;52.402;4.920;2023-04-24T03:11:16;13.30;99.90
17370;DHT22;8802;52.402;4.920;2023-04-24T03:13:43;13.30;99.90
17370;DHT22;8802;52.402;4.920;2023-04-24T03:16:10;13.30;99.90
17370;DHT22;8802;52.402;4.920;2023-04-24T03:18:37;13.30;99.90
17370;DHT22;8802;52.402;4.920;2023-04-24T03:21:03;13.30;99.90
17370;DHT22;8802;52.402;4.920;2023-04-24T03:23:32;13.30;99.90
17370;DHT22;8802;52.402;4.920;2023-04-24T03:25:58;13.30;99.90
17370;DHT22;8802;52.402;4.920;2023-04-24T03:28:26;13.30;99.90
17370;DHT22;8802;52.402;4.920;2023-04-24T03:30:53;13.30;99.90
17370;DHT22;8802;52.402;4.920;2023-04-24T03:33:19;13.30;99.90
17370;DHT22;8802;52.402;4.920;2023-04-24T03:35:46;13.30;99.90
17370;DHT22;8802;52.402;4.920;2023-04-24T03:38:13;13.30;99.90
17370;DHT22;8802;52.402;4.920;2023-04-24T03:40:41;13.30;99.90
17370;DHT22;8802;52.402;4.920;2023-04-24T03:43:08;13.30;99.90
17370;DHT22;8802;52.402;4.920;2023-04-24T03:45:35;13.30;99.90
17370;DHT22;8802;52.402;4.920;2023-04-24T03:48:02;13.30;99.90
17370;DHT22;8802;52.402;4.920;2023-04-24T03:50:29;13.30;99.90
17370;DHT22;8802;52.402;4.920;2023-04-24T03:52:56;13.30;99.90
17370;DHT22;8802;52.402;4.920;2023-04-24T03:55:23;13.20;99.90
17370;DHT22;8802;52.402;4.920;2023-04-24T03:57:51;13.30;99.90
17370;DHT22;8802;52.402;4.920;2023-04-24T04:00:18;13.20;99.90
17370;DHT22;8802;52.402;4.920;2023-04-24T04:02:46;13.20;99.90
17370;DHT22;8802;52.402;4.920;2023-04-24T04:05:13;13.20;99.90
17370;DHT22;8802;52.402;4.920;2023-04-24T04:07:40;13.20;99.90
17370;DHT22;8802;52.402;4.920;2023-04-24T04:10:07;13.20;99.90
17370;DHT22;8802;52.402;4.920;2023-04-24T04:12:34;13.20;99.90
17370;DHT22;8802;52.402;4.920;2023-04-24T04:15:03;13.20;99.90
17370;DHT22;8802;52.402;4.920;2023-04-24T04:17:31;13.20;99.90
17370;DHT22;8802;52.402;4.920;2023-04-24T04:19:58;13.20;99.90
17370;DHT22;8802;52.402;4.920;2023-04-24T04:22:25;13.30;99.90
17370;DHT22;8802;52.402;4.920;2023-04-24T04:24:52;13.20;99.90
17370;DHT22;8802;52.402;4.920;2023-04-24T04:27:19;13.20;99.90
17370;DHT22;8802;52.402;4.920;2023-04-24T04:29:46;13.20;99.90
17370;DHT22;8802;52.402;4.920;2023-04-24T04:32:15;13.20;99.90
17370;DHT22;8802;52.402;4.920;2023-04-24T04:34:42;13.20;99.90
17370;DHT22;8802;52.402;4.920;2023-04-24T04:37:11;13.20;99.90
17370;DHT22;8802;52.402;4.920;2023-04-24T04:39:38;13.20;99.90
17370;DHT22;8802;52.402;4.920;2023-04-24T04:42:05;13.20;99.90
17370;DHT22;8802;52.402;4.920;2023-04-24T04:44:32;13.20;99.90
17370;DHT22;8802;52.402;4.920;2023-04-24T04:47:01;13.20;99.90
17370;DHT22;8802;52.402;4.920;2023-04-24T04:49:32;13.20;99.90
17370;DHT22;8802;52.402;4.920;2023-04-24T04:51:59;13.20;99.90
17370;DHT22;8802;52.402;4.920;2023-04-24T04:54:26;13.20;99.90
17370;DHT22;8802;52.402;4.920;2023-04-24T04:56:53;13.20;99.90
17370;DHT22;8802;52.402;4.920;2023-04-24T04:59:20;13.20;99.90
17370;DHT22;8802;52.402;4.920;2023-04-24T05:01:47;13.10;99.90
17370;DHT22;8802;52.402;4.920;2023-04-24T05:04:14;13.20;99.90
17370;DHT22;8802;52.402;4.920;2023-04-24T05:06:42;13.10;99.90
17370;DHT22;8802;52.402;4.920;2023-04-24T05:09:09;13.20;99.90
17370;DHT22;8802;52.402;4.920;2023-04-24T05:11:36;13.10;99.90
17370;DHT22;8802;52.402;4.920;2023-04-24T05:14:03;13.10;99.90
17370;DHT22;8802;52.402;4.920;2023-04-24T05:16:29;13.10;99.90
17370;DHT22;8802;52.402;4.920;2023-04-24T05:18:57;13.10;99.90
17370;DHT22;8802;52.402;4.920;2023-04-24T05:21:24;13.10;99.90
17370;DHT22;8802;52.402;4.920;2023-04-24T05:23:52;13.10;99.90
17370;DHT22;8802;52.402;4.920;2023-04-24T05:26:19;13.10;99.90
17370;DHT22;8802;52.402;4.920;2023-04-24T05:28:46;13.10;99.90
17370;DHT22;8802;52.402;4.920;2023-04-24T05:31:12;13.00;99.90
17370;DHT22;8802;52.402;4.920;2023-04-24T05:33:39;13.00;99.90
17370;DHT22;8802;52.402;4.920;2023-04-24T05:36:07;13.00;99.90
17370;DHT22;8802;52.402;4.920;2023-04-24T05:38:33;13.00;99.90
17370;DHT22;8802;52.402;4.920;2023-04-24T05:41:02;12.90;99.90
17370;DHT22;8802;52.402;4.920;2023-04-24T05:43:29;12.90;99.90
17370;DHT22;8802;52.402;4.920;2023-04-24T05:45:55;12.80;99.90
17370;DHT22;8802;52.402;4.920;2023-04-24T05:48:22;12.80;99.90
17370;DHT22;8802;52.402;4.920;2023-04-24T05:50:49;12.80;99.90
17370;DHT22;8802;52.402;4.920;2023-04-24T05:53:18;12.70;99.90
17370;DHT22;8802;52.402;4.920;2023-04-24T05:55:45;12.70;99.90
17370;DHT22;8802;52.402;4.920;2023-04-24T05:58:13;12.70;99.90
17370;DHT22;8802;52.402;4.920;2023-04-24T06:00:40;12.70;99.90
17370;DHT22;8802;52.402;4.920;2023-04-24T06:03:08;12.70;99.90
17370;DHT22;8802;52.402;4.920;2023-04-24T06:05:35;12.70;99.90
17370;DHT22;8802;52.402;4.920;2023-04-24T06:08:02;12.60;99.90
17370;DHT22;8802;52.402;4.920;2023-04-24T06:10:29;12.70;99.90
17370;DHT22;8802;52.402;4.920;2023-04-24T06:12:56;12.60;99.90
17370;DHT22;8802;52.402;4.920;2023-04-24T06:15:28;12.60;99.90
17370;DHT22;8802;52.402;4.920;2023-04-24T06:17:56;12.60;99.90
17370;DHT22;8802;52.402;4.920;2023-04-24T06:20:23;12.60;99.90
17370;DHT22;8802;52.402;4.920;2023-04-24T06:22:50;12.60;99.90
17370;DHT22;8802;52.402;4.920;2023-04-24T06:25:17;12.60;99.90
17370;DHT22;8802;52.402;4.920;2023-04-24T06:27:44;12.50;99.90
17370;DHT22;8802;52.402;4.920;2023-04-24T06:30:11;12.50;99.90
17370;DHT22;8802;52.402;4.920;2023-04-24T06:32:40;12.50;99.90
17370;DHT22;8802;52.402;4.920;2023-04-24T06:35:07;12.50;99.90
17370;DHT22;8802;52.402;4.920;2023-04-24T06:37:35;12.50;99.90
17370;DHT22;8802;52.402;4.920;2023-04-24T06:40:02;12.50;99.90
17370;DHT22;8802;52.402;4.920;2023-04-24T06:42:29;12.50;99.90
17370;DHT22;8802;52.402;4.920;2023-04-24T06:44:56;12.50;99.90
17370;DHT22;8802;52.402;4.920;2023-04-24T06:47:23;12.50;99.90
17370;DHT22;8802;52.402;4.920;2023-04-24T06:49:51;12.50;99.90
17370;DHT22;8802;52.402;4.920;2023-04-24T06:52:18;12.40;99.90
17370;DHT22;8802;52.402;4.920;2023-04-24T06:54:45;12.40;99.90
17370;DHT22;8802;52.402;4.920;2023-04-24T06:57:12;12.50;99.90
17370;DHT22;8802;52.402;4.920;2023-04-24T06:59:39;12.50;99.90
17370;DHT22;8802;52.402;4.920;2023-04-24T07:02:06;12.40;99.90
17370;DHT22;8802;52.402;4.920;2023-04-24T07:04:33;12.40;99.90
17370;DHT22;8802;52.402;4.920;2023-04-24T07:07:02;12.40;99.90
17370;DHT22;8802;52.402;4.920;2023-04-24T07:09:30;12.40;99.90
17370;DHT22;8802;52.402;4.920;2023-04-24T07:11:57;12.40;99.90
17370;DHT22;8802;52.402;4.920;2023-04-24T07:14:24;12.40;99.90
17370;DHT22;8802;52.402;4.920;2023-04-24T07:16:51;12.40;99.90
17370;DHT22;8802;52.402;4.920;2023-04-24T07:19:18;12.40;99.90
17370;DHT22;8802;52.402;4.920;2023-04-24T07:21:44;12.40;99.90
17370;DHT22;8802;52.402;4.920;2023-04-24T07:24:13;12.40;99.90
17370;DHT22;8802;52.402;4.920;2023-04-24T07:26:39;12.40;99.90
17370;DHT22;8802;52.402;4.920;2023-04-24T07:29:06;12.40;99.90
17370;DHT22;8802;52.402;4.920;2023-04-24T07:31:34;12.40;99.90
17370;DHT22;8802;52.402;4.920;2023-04-24T07:34:01;12.40;99.90
17370;DHT22;8802;52.402;4.920;2023-04-24T07:36:28;12.40;99.90
17370;DHT22;8802;52.402;4.920;2023-04-24T07:38:55;12.50;99.90
17370;DHT22;8802;52.402;4.920;2023-04-24T07:41:24;12.40;99.90
17370;DHT22;8802;52.402;4.920;2023-04-24T07:43:53;12.40;99.90
17370;DHT22;8802;52.402;4.920;2023-04-24T07:46:20;12.40;99.90
17370;DHT22;8802;52.402;4.920;2023-04-24T07:48:47;12.40;99.90
17370;DHT22;8802;52.402;4.920;2023-04-24T07:51:14;12.40;99.90
17370;DHT22;8802;52.402;4.920;2023-04-24T07:53:41;12.40;99.90
17370;DHT22;8802;52.402;4.920;2023-04-24T07:56:08;12.40;99.90
17370;DHT22;8802;52.402;4.920;2023-04-24T07:58:36;12.40;99.90
17370;DHT22;8802;52.402;4.920;2023-04-24T08:01:03;12.40;99.90
17370;DHT22;8802;52.402;4.920;2023-04-24T08:03:30;12.40;99.90
17370;DHT22;8802;52.402;4.920;2023-04-24T08:05:57;12.40;99.90
17370;DHT22;8802;52.402;4.920;2023-04-24T08:08:25;12.40;99.90
17370;DHT22;8802;52.402;4.920;2023-04-24T08:10:52;12.40;99.90
17370;DHT22;8802;52.402;4.920;2023-04-24T08:13:19;12.30;99.90
17370;DHT22;8802;52.402;4.920;2023-04-24T08:15:47;12.30;99.90
17370;DHT22;8802;52.402;4.920;2023-04-24T08:18:14;12.30;99.90
17370;DHT22;8802;52.402;4.920;2023-04-24T08:20:41;12.40;99.90
17370;DHT22;8802;52.402;4.920;2023-04-24T08:23:09;12.30;99.90
17370;DHT22;8802;52.402;4.920;2023-04-24T08:25:36;12.40;99.90
17370;DHT22;8802;52.402;4.920;2023-04-24T08:28:03;12.40;99.90
17370;DHT22;8802;52.402;4.920;2023-04-24T08:30:30;12.40;99.90
17370;DHT22;8802;52.402;4.920;2023-04-24T08:32:58;12.40;99.90
17370;DHT22;8802;52.402;4.920;2023-04-24T08:35:25;12.40;99.90
17370;DHT22;8802;52.402;4.920;2023-04-24T08:37:52;12.40;99.90
17370;DHT22;8802;52.402;4.920;2023-04-24T08:40:25;12.40;99.90
17370;DHT22;8802;52.402;4.920;2023-04-24T08:42:54;12.40;99.90
17370;DHT22;8802;52.402;4.920;2023-04-24T08:45:21;12.50;99.90
17370;DHT22;8802;52.402;4.920;2023-04-24T08:47:48;12.40;99.90
17370;DHT22;8802;52.402;4.920;2023-04-24T08:50:17;12.40;99.90
17370;DHT22;8802;52.402;4.920;2023-04-24T08:52:44;12.40;99.90
17370;DHT22;8802;52.402;4.920;2023-04-24T08:55:11;12.40;99.90
17370;DHT22;8802;52.402;4.920;2023-04-24T08:57:38;12.40;99.90
17370;DHT22;8802;52.402;4.920;2023-04-24T09:00:07;12.40;99.90
17370;DHT22;8802;52.402;4.920;2023-04-24T09:02:34;12.40;99.90
17370;DHT22;8802;52.402;4.920;2023-04-24T09:05:01;12.40;99.90
17370;DHT22;8802;52.402;4.920;2023-04-24T09:07:30;12.40;99.90
17370;DHT22;8802;52.402;4.920;2023-04-24T09:09:59;12.40;99.90
17370;DHT22;8802;52.402;4.920;2023-04-24T09:12:27;12.40;99.90
17370;DHT22;8802;52.402;4.920;2023-04-24T09:14:55;12.40;99.90
17370;DHT22;8802;52.402;4.920;2023-04-24T09:17:24;12.40;99.90
17370;DHT22;8802;52.402;4.920;2023-04-24T09:19:52;12.40;99.90
17370;DHT22;8802;52.402;4.920;2023-04-24T09:22:20;12.50;99.90
17370;DHT22;8802;52.402;4.920;2023-04-24T09:25:01;12.40;99.90
17370;DHT22;8802;52.402;4.920;2023-04-24T09:27:29;12.50;99.90
17370;DHT22;8802;52.402;4.920;2023-04-24T09:29:56;12.50;99.90
17370;DHT22;8802;52.402;4.920;2023-04-24T09:32:24;12.50;99.90
17370;DHT22;8802;52.402;4.920;2023-04-24T09:35:06;12.50;99.90
17370;DHT22;8802;52.402;4.920;2023-04-24T09:37:36;12.60;99.90
17370;DHT22;8802;52.402;4.920;2023-04-24T09:40:16;12.60;99.90
17370;DHT22;8802;52.402;4.920;2023-04-24T09:42:50;12.60;99.90
17370;DHT22;8802;52.402;4.920;2023-04-24T09:45:18;12.60;99.90
17370;DHT22;8802;52.402;4.920;2023-04-24T09:47:45;12.60;99.90
17370;DHT22;8802;52.402;4.920;2023-04-24T09:50:13;12.70;99.90
17370;DHT22;8802;52.402;4.920;2023-04-24T09:52:43;12.70;99.90
17370;DHT22;8802;52.402;4.920;2023-04-24T09:55:19;12.70;99.90
17370;DHT22;8802;52.402;4.920;2023-04-24T09:57:50;12.70;99.90
17370;DHT22;8802;52.402;4.920;2023-04-24T10:00:25;12.70;99.90
17370;DHT22;8802;52.402;4.920;2023-04-24T10:02:56;12.80;99.90
17370;DHT22;8802;52.402;4.920;2023-04-24T10:05:24;12.80;99.90
17370;DHT22;8802;52.402;4.920;2023-04-24T10:07:52;12.80;99.90
17370;DHT22;8802;52.402;4.920;2023-04-24T10:10:24;12.90;99.90
17370;DHT22;8802;52.402;4.920;2023-04-24T10:12:51;12.90;99.90
17370;DHT22;8802;52.402;4.920;2023-04-24T10:15:19;12.90;99.90
17370;DHT22;8802;52.402;4.920;2023-04-24T10:17:47;13.00;99.90
17370;DHT22;8802;52.402;4.920;2023-04-24T10:20:18;13.00;99.90
17370;DHT22;8802;52.402;4.920;2023-04-24T10:22:48;13.10;99.90
17370;DHT22;8802;52.402;4.920;2023-04-24T10:25:18;13.20;99.90
17370;DHT22;8802;52.402;4.920;2023-04-24T10:27:47;13.20;99.90
17370;DHT22;8802;52.402;4.920;2023-04-24T10:30:15;13.30;99.90
17370;DHT22;8802;52.402;4.920;2023-04-24T10:32:42;13.40;99.90
17370;DHT22;8802;52.402;4.920;2023-04-24T10:35:10;13.40;99.90
17370;DHT22;8802;52.402;4.920;2023-04-24T10:37:42;13.40;99.90
17370;DHT22;8802;52.402;4.920;2023-04-24T10:40:11;13.40;99.90
17370;DHT22;8802;52.402;4.920;2023-04-24T10:42:40;13.50;99.90
17370;DHT22;8802;52.402;4.920;2023-04-24T10:45:16;13.60;99.90
17370;DHT22;8802;52.402;4.920;2023-04-24T10:47:51;13.70;99.90
17370;DHT22;8802;52.402;4.920;2023-04-24T10:50:18;13.80;99.90
17370;DHT22;8802;52.402;4.920;2023-04-24T10:52:45;13.90;99.90
17370;DHT22;8802;52.402;4.920;2023-04-24T10:55:12;14.10;99.90
17370;DHT22;8802;52.402;4.920;2023-04-24T10:58:00;14.20;99.90
17370;DHT22;8802;52.402;4.920;2023-04-24T11:00:29;14.40;99.90
17370;DHT22;8802;52.402;4.920;2023-04-24T11:02:56;14.40;99.90
17370;DHT22;8802;52.402;4.920;2023-04-24T11:05:51;14.50;99.90
17370;DHT22;8802;52.402;4.920;2023-04-24T11:08:26;14.50;99.90
17370;DHT22;8802;52.402;4.920;2023-04-24T11:10:58;14.60;99.90
17370;DHT22;8802;52.402;4.920;2023-04-24T11:13:28;14.70;99.90
17370;DHT22;8802;52.402;4.920;2023-04-24T11:16:20;14.80;99.90
17370;DHT22;8802;52.402;4.920;2023-04-24T11:18:51;14.80;99.90
17370;DHT22;8802;52.402;4.920;2023-04-24T11:21:20;14.80;99.90
17370;DHT22;8802;52.402;4.920;2023-04-24T11:23:48;14.80;99.90
17370;DHT22;8802;52.402;4.920;2023-04-24T11:26:18;14.80;99.90
17370;DHT22;8802;52.402;4.920;2023-04-24T11:28:49;14.80;99.90
17370;DHT22;8802;52.402;4.920;2023-04-24T11:31:37;14.90;99.90
17370;DHT22;8802;52.402;4.920;2023-04-24T11:34:09;14.80;99.90
17370;DHT22;8802;52.402;4.920;2023-04-24T11:36:36;14.90;99.90
17370;DHT22;8802;52.402;4.920;2023-04-24T11:39:03;14.90;99.90
17370;DHT22;8802;52.402;4.920;2023-04-24T11:41:30;14.90;99.90
17370;DHT22;8802;52.402;4.920;2023-04-24T11:43:58;14.90;99.90
17370;DHT22;8802;52.402;4.920;2023-04-24T11:46:28;15.00;99.90
17370;DHT22;8802;52.402;4.920;2023-04-24T11:48:57;15.00;99.90
17370;DHT22;8802;52.402;4.920;2023-04-24T11:51:25;15.00;99.90
17370;DHT22;8802;52.402;4.920;2023-04-24T11:53:52;15.10;99.90
17370;DHT22;8802;52.402;4.920;2023-04-24T11:56:19;15.10;99.90
17370;DHT22;8802;52.402;4.920;2023-04-24T11:58:47;15.10;99.90
17370;DHT22;8802;52.402;4.920;2023-04-24T12:01:14;15.10;99.90
17370;DHT22;8802;52.402;4.920;2023-04-24T12:03:43;15.10;99.90
17370;DHT22;8802;52.402;4.920;2023-04-24T12:06:15;15.00;99.90
17370;DHT22;8802;52.402;4.920;2023-04-24T12:08:41;15.00;99.90
17370;DHT22;8802;52.402;4.920;2023-04-24T12:11:15;14.90;99.90
17370;DHT22;8802;52.402;4.920;2023-04-24T12:13:44;14.80;99.70
17370;DHT22;8802;52.402;4.920;2023-04-24T12:16:11;14.70;99.60
17370;DHT22;8802;52.402;4.920;2023-04-24T12:18:42;14.70;99.80
17370;DHT22;8802;52.402;4.920;2023-04-24T12:21:19;14.60;99.80
17370;DHT22;8802;52.402;4.920;2023-04-24T12:23:46;14.60;99.30
17370;DHT22;8802;52.402;4.920;2023-04-24T12:26:16;14.60;99.90
17370;DHT22;8802;52.402;4.920;2023-04-24T12:28:47;14.60;99.80
17370;DHT22;8802;52.402;4.920;2023-04-24T12:31:14;14.60;99.90
17370;DHT22;8802;52.402;4.920;2023-04-24T12:33:41;14.50;99.90
17370;DHT22;8802;52.402;4.920;2023-04-24T12:36:10;14.50;99.90
17370;DHT22;8802;52.402;4.920;2023-04-24T12:38:43;14.60;99.90
17370;DHT22;8802;52.402;4.920;2023-04-24T12:41:12;14.60;99.90
17370;DHT22;8802;52.402;4.920;2023-04-24T12:43:50;14.60;99.90
17370;DHT22;8802;52.402;4.920;2023-04-24T12:46:17;14.60;99.90
17370;DHT22;8802;52.402;4.920;2023-04-24T12:48:44;14.60;99.90
17370;DHT22;8802;52.402;4.920;2023-04-24T12:51:11;14.60;99.90
17370;DHT22;8802;52.402;4.920;2023-04-24T12:53:39;14.60;99.80
17370;DHT22;8802;52.402;4.920;2023-04-24T12:56:06;14.50;99.90
17370;DHT22;8802;52.402;4.920;2023-04-24T12:58:33;14.50;99.60
17370;DHT22;8802;52.402;4.920;2023-04-24T13:01:00;14.50;99.80
17370;DHT22;8802;52.402;4.920;2023-04-24T13:03:27;14.50;99.80
17370;DHT22;8802;52.402;4.920;2023-04-24T13:05:54;14.50;99.90
17370;DHT22;8802;52.402;4.920;2023-04-24T13:08:21;14.50;99.30
17370;DHT22;8802;52.402;4.920;2023-04-24T13:10:49;14.40;99.50
17370;DHT22;8802;52.402;4.920;2023-04-24T13:13:17;14.40;99.50
17370;DHT22;8802;52.402;4.920;2023-04-24T13:15:44;14.40;99.70
17370;DHT22;8802;52.402;4.920;2023-04-24T13:18:11;14.40;99.60
17370;DHT22;8802;52.402;4.920;2023-04-24T13:20:38;14.40;99.50
17370;DHT22;8802;52.402;4.920;2023-04-24T13:23:06;14.50;99.90
17370;DHT22;8802;52.402;4.920;2023-04-24T13:25:35;14.50;99.40
17370;DHT22;8802;52.402;4.920;2023-04-24T13:28:04;14.50;99.50
17370;DHT22;8802;52.402;4.920;2023-04-24T13:30:31;14.50;99.50
17370;DHT22;8802;52.402;4.920;2023-04-24T13:32:58;14.40;99.30
17370;DHT22;8802;52.402;4.920;2023-04-24T13:35:25;14.40;99.70
17370;DHT22;8802;52.402;4.920;2023-04-24T13:37:52;14.40;99.60
17370;DHT22;8802;52.402;4.920;2023-04-24T13:40:19;14.50;99.50
17370;DHT22;8802;52.402;4.920;2023-04-24T13:42:46;14.40;99.90
17370;DHT22;8802;52.402;4.920;2023-04-24T13:45:14;14.50;99.60
17370;DHT22;8802;52.402;4.920;2023-04-24T13:47:41;14.50;99.60
17370;DHT22;8802;52.402;4.920;2023-04-24T13:50:08;14.50;99.70
17370;DHT22;8802;52.402;4.920;2023-04-24T13:52:36;14.60;99.60
17370;DHT22;8802;52.402;4.920;2023-04-24T13:55:03;14.50;98.50
17370;DHT22;8802;52.402;4.920;2023-04-24T13:57:30;14.60;98.80
17370;DHT22;8802;52.402;4.920;2023-04-24T13:59:58;14.60;98.70
17370;DHT22;8802;52.402;4.920;2023-04-24T14:02:28;14.70;99.20
17370;DHT22;8802;52.402;4.920;2023-04-24T14:04:55;14.70;98.00
17370;DHT22;8802;52.402;4.920;2023-04-24T14:07:22;14.80;98.30
17370;DHT22;8802;52.402;4.920;2023-04-24T14:09:48;14.80;98.20
17370;DHT22;8802;52.402;4.920;2023-04-24T14:12:16;14.90;97.90
17370;DHT22;8802;52.402;4.920;2023-04-24T14:14:45;14.90;97.80
17370;DHT22;8802;52.402;4.920;2023-04-24T14:17:13;14.90;98.00
17370;DHT22;8802;52.402;4.920;2023-04-24T14:19:41;14.90;97.80
17370;DHT22;8802;52.402;4.920;2023-04-24T14:22:09;14.90;97.50
17370;DHT22;8802;52.402;4.920;2023-04-24T14:24:36;14.90;97.40
17370;DHT22;8802;52.402;4.920;2023-04-24T14:27:03;14.80;97.50
17370;DHT22;8802;52.402;4.920;2023-04-24T14:29:30;14.80;97.40
17370;DHT22;8802;52.402;4.920;2023-04-24T14:31:56;14.80;97.50
17370;DHT22;8802;52.402;4.920;2023-04-24T14:34:23;14.70;97.50
17370;DHT22;8802;52.402;4.920;2023-04-24T14:36:52;14.70;97.80
17370;DHT22;8802;52.402;4.920;2023-04-24T14:39:19;14.70;98.00
17370;DHT22;8802;52.402;4.920;2023-04-24T14:41:46;14.70;97.50
17370;DHT22;8802;52.402;4.920;2023-04-24T14:44:13;14.70;97.20
17370;DHT22;8802;52.402;4.920;2023-04-24T14:46:40;14.70;97.20
17370;DHT22;8802;52.402;4.920;2023-04-24T14:49:07;14.70;97.50
17370;DHT22;8802;52.402;4.920;2023-04-24T14:51:35;14.70;97.40
17370;DHT22;8802;52.402;4.920;2023-04-24T14:54:03;14.70;97.30
17370;DHT22;8802;52.402;4.920;2023-04-24T14:56:30;14.70;97.10
17370;DHT22;8802;52.402;4.920;2023-04-24T14:58:57;14.70;97.20
17370;DHT22;8802;52.402;4.920;2023-04-24T15:01:24;14.70;97.30
17370;DHT22;8802;52.402;4.920;2023-04-24T15:03:51;14.70;97.60
17370;DHT22;8802;52.402;4.920;2023-04-24T15:06:18;14.70;97.50
17370;DHT22;8802;52.402;4.920;2023-04-24T15:08:45;14.70;97.80
17370;DHT22;8802;52.402;4.920;2023-04-24T15:11:14;14.70;97.30
17370;DHT22;8802;52.402;4.920;2023-04-24T15:13:41;14.70;97.50
17370;DHT22;8802;52.402;4.920;2023-04-24T15:16:07;14.70;97.00
17370;DHT22;8802;52.402;4.920;2023-04-24T15:18:34;14.70;97.30
17370;DHT22;8802;52.402;4.920;2023-04-24T15:21:01;14.60;97.00
17370;DHT22;8802;52.402;4.920;2023-04-24T15:23:28;14.60;97.30
17370;DHT22;8802;52.402;4.920;2023-04-24T15:25:55;14.60;97.00
17370;DHT22;8802;52.402;4.920;2023-04-24T15:28:24;14.60;97.10
17370;DHT22;8802;52.402;4.920;2023-04-24T15:30:51;14.60;97.00
17370;DHT22;8802;52.402;4.920;2023-04-24T15:33:18;14.60;97.10
17370;DHT22;8802;52.402;4.920;2023-04-24T15:35:45;14.60;97.20
17370;DHT22;8802;52.402;4.920;2023-04-24T15:38:12;14.50;97.20
17370;DHT22;8802;52.402;4.920;2023-04-24T15:40:39;14.50;97.30
17370;DHT22;8802;52.402;4.920;2023-04-24T15:43:06;14.50;96.80
17370;DHT22;8802;52.402;4.920;2023-04-24T15:45:34;14.50;96.80
17370;DHT22;8802;52.402;4.920;2023-04-24T15:48:02;14.50;96.60
17370;DHT22;8802;52.402;4.920;2023-04-24T15:50:29;14.40;96.70